Time;durP1;ratioP1;P1;durP2;ratioP2;P2;SDS_P1;SDS_P2;PMS_P1;PMS_P2;Temp;Humidity;BMP_temperature;BMP_pressure;BME280_temperature;BME280_humidity;BME280_pressure;Samples;Min_cycle;Max_cycle;Signal;HPM_P1;HPM_P2
2022/06/16 00:00:50;;;;;;;6.43;3.28;;;;;;;17.24;66.37;101693.53;5211816;28;20167;-66
2022/06/16 00:03:22;;;;;;;7.20;3.67;;;;;;;17.18;69.92;101696.75;5211865;28;20543;-65
2022/06/16 00:05:53;;;;;;;7.15;3.72;;;;;;;17.09;66.92;101693.06;5207365;28;20042;-65
2022/06/16 00:08:25;;;;;;;5.90;3.45;;;;;;;17.06;67.70;101687.94;5208764;28;20092;-66
2022/06/16 00:13:47;;;;;;;7.05;3.55;;;;;;;17.02;68.98;101691.91;5209658;28;20030;-65
2022/06/16 00:16:20;;;;;;;6.45;3.97;;;;;;;17.03;70.43;101699.88;5211577;28;20977;-65
2022/06/16 00:18:51;;;;;;;6.38;3.83;;;;;;;17.07;69.54;101697.75;5206883;28;20077;-66
2022/06/16 00:21:23;;;;;;;8.23;3.88;;;;;;;16.94;67.71;101692.59;5221433;28;20033;-65
2022/06/16 00:23:54;;;;;;;6.53;3.88;;;;;;;16.90;66.89;101699.25;5206453;28;20113;-66
2022/06/16 00:26:27;;;;;;;9.55;4.20;;;;;;;16.91;68.57;101708.19;5208374;28;20476;-66
2022/06/16 00:28:58;;;;;;;6.03;3.40;;;;;;;16.81;68.03;101700.06;5212303;28;20043;-66
2022/06/16 00:31:34;;;;;;;8.18;3.92;;;;;;;16.80;68.03;101703.75;5212364;28;20029;-66
2022/06/16 00:34:06;;;;;;;6.25;4.28;;;;;;;16.74;68.09;101704.28;5207512;28;20133;-66
2022/06/16 00:36:38;;;;;;;8.10;4.20;;;;;;;16.66;66.69;101695.06;5208909;28;20076;-66
2022/06/16 00:39:09;;;;;;;6.75;4.43;;;;;;;16.59;66.40;101693.88;5209317;28;20168;-66
2022/06/16 00:41:41;;;;;;;7.82;4.22;;;;;;;16.63;69.99;101702.56;5204632;28;20037;-65
2022/06/16 00:44:37;;;;;;;6.90;3.88;;;;;;;16.48;66.47;101701.22;5206668;28;20030;-65
2022/06/16 00:47:09;;;;;;;5.97;4.30;;;;;;;16.46;70.95;101704.88;5198831;28;20502;-65
2022/06/16 00:49:44;;;;;;;7.28;4.13;;;;;;;16.41;68.00;101706.28;5204710;28;20048;-65
2022/06/16 00:52:19;;;;;;;5.70;4.15;;;;;;;16.36;70.26;101704.00;5210974;28;20099;-66
2022/06/16 00:55:07;;;;;;;7.57;4.35;;;;;;;16.35;69.09;101712.19;5205032;28;20114;-65
2022/06/16 00:57:45;;;;;;;9.48;4.80;;;;;;;16.28;72.80;101722.66;5210867;28;20026;-65
2022/06/16 01:03:00;;;;;;;5.90;4.78;;;;;;;16.13;67.30;101718.56;5203486;28;20041;-65
2022/06/16 01:05:31;;;;;;;7.72;4.57;;;;;;;16.31;67.54;101718.84;5202675;28;20396;-66
2022/06/16 01:08:04;;;;;;;7.70;4.43;;;;;;;16.07;69.43;101714.59;5198993;28;20439;-65
2022/06/16 01:10:43;;;;;;;6.63;4.70;;;;;;;16.10;68.45;101719.72;5203463;28;20380;-65
2022/06/16 01:16:16;;;;;;;6.30;4.47;;;;;;;16.11;71.27;101725.94;5203702;28;20042;-65
2022/06/16 01:18:54;;;;;;;8.07;5.05;;;;;;;15.98;68.81;101724.31;5218422;28;20050;-65
2022/06/16 01:21:42;;;;;;;7.80;4.75;;;;;;;16.05;70.00;101732.69;5205048;28;20068;-65
2022/06/16 01:24:41;;;;;;;11.05;5.40;;;;;;;16.04;72.30;101731.84;5202538;28;20033;-66
2022/06/16 01:27:34;;;;;;;8.32;5.05;;;;;;;15.93;70.42;101731.91;5201817;28;20044;-65
2022/06/16 01:30:43;;;;;;;7.15;4.47;;;;;;;15.95;70.70;101732.63;5208949;28;20030;-65
2022/06/16 01:33:30;;;;;;;9.10;4.70;;;;;;;15.78;69.10;101742.16;5203570;28;20515;-65
2022/06/16 01:36:10;;;;;;;8.95;4.80;;;;;;;15.71;68.74;101746.31;5203458;28;20072;-65
2022/06/16 01:38:47;;;;;;;9.38;4.97;;;;;;;15.81;69.19;101752.66;5200710;28;20034;-65
2022/06/16 01:41:32;;;;;;;9.07;5.00;;;;;;;15.62;68.16;101753.31;5211305;28;20034;-65
2022/06/16 01:44:10;;;;;;;9.45;5.28;;;;;;;15.67;71.75;101751.09;5200823;28;20488;-65
2022/06/16 01:46:45;;;;;;;9.90;4.82;;;;;;;15.70;69.45;101744.59;5208001;28;20140;-65
2022/06/16 01:49:27;;;;;;;10.32;5.13;;;;;;;15.45;70.51;101746.63;5206200;28;20037;-66
2022/06/16 01:52:04;;;;;;;7.65;5.03;;;;;;;15.54;73.13;101746.88;5211623;28;20030;-65
2022/06/16 01:54:40;;;;;;;7.40;4.88;;;;;;;15.38;70.30;101753.53;5207702;28;20063;-65
2022/06/16 01:57:12;;;;;;;7.60;4.75;;;;;;;15.26;70.17;101749.13;5208897;28;20028;-65
2022/06/16 01:59:53;;;;;;;8.57;4.90;;;;;;;15.21;70.93;101752.22;5215157;28;20033;-65
2022/06/16 02:02:27;;;;;;;7.28;4.85;;;;;;;15.16;70.78;101751.72;5208017;28;20022;-66
2022/06/16 02:05:13;;;;;;;9.95;4.70;;;;;;;15.10;71.36;101753.06;5205255;28;20396;-65
2022/06/16 02:07:51;;;;;;;10.95;5.03;;;;;;;14.99;73.52;101763.00;5207215;28;20388;-65
2022/06/16 02:10:31;;;;;;;9.65;5.32;;;;;;;14.93;73.52;101753.59;5210234;28;20030;-65
2022/06/16 02:13:05;;;;;;;9.88;5.25;;;;;;;14.92;75.73;101745.66;5206321;28;20189;-65
2022/06/16 02:15:53;;;;;;;8.65;5.30;;;;;;;14.85;74.20;101732.72;5209572;28;20537;-65
2022/06/16 02:18:29;;;;;;;9.95;5.30;;;;;;;14.95;73.28;101735.50;5209846;28;20054;-65
2022/06/16 02:21:24;;;;;;;10.10;5.75;;;;;;;14.78;75.53;101741.38;5214871;28;20033;-65
2022/06/16 02:23:57;;;;;;;10.38;5.18;;;;;;;14.59;75.84;101742.00;5206217;28;20536;-65
2022/06/16 02:26:28;;;;;;;10.43;5.60;;;;;;;14.69;79.99;101743.00;5208608;28;20105;-66
2022/06/16 02:29:18;;;;;;;10.90;5.72;;;;;;;14.51;74.88;101747.94;5213174;28;20101;-66
2022/06/16 02:31:55;;;;;;;6.70;5.20;;;;;;;14.48;77.87;101756.25;5203477;28;21057;-65
2022/06/16 02:34:41;;;;;;;8.77;5.50;;;;;;;14.45;75.73;101764.53;5206299;28;20026;-65
2022/06/16 02:37:31;;;;;;;9.05;5.55;;;;;;;14.40;75.29;101774.78;5206647;28;20037;-66
2022/06/16 02:40:23;;;;;;;8.45;5.50;;;;;;;14.45;75.18;101783.34;5208620;28;20373;-66
2022/06/16 02:43:23;;;;;;;9.65;5.43;;;;;;;14.41;74.82;101789.94;5203697;28;20508;-66
2022/06/16 02:46:06;;;;;;;7.82;5.53;;;;;;;14.22;75.69;101793.16;5205895;28;20025;-65
2022/06/16 02:48:59;;;;;;;9.90;5.97;;;;;;;14.23;76.00;101798.44;5204335;28;20475;-66
2022/06/16 02:51:43;;;;;;;13.18;7.00;;;;;;;14.14;79.11;101806.34;5205453;28;20033;-66
2022/06/16 02:54:29;;;;;;;9.90;5.82;;;;;;;14.13;76.36;101805.47;5204343;28;20074;-66
2022/06/16 02:57:22;;;;;;;7.35;5.80;;;;;;;14.20;78.75;101800.50;5209205;28;20085;-66
2022/06/16 02:59:59;;;;;;;10.43;6.30;;;;;;;14.08;81.63;101803.13;5206406;28;20026;-66
2022/06/16 03:02:30;;;;;;;10.07;5.80;;;;;;;14.14;81.59;101807.19;5205776;28;20926;-66
2022/06/16 03:05:05;;;;;;;8.48;6.10;;;;;;;13.98;76.98;101801.25;5204484;28;20026;-65
2022/06/16 03:07:37;;;;;;;9.32;5.68;;;;;;;13.87;77.65;101794.88;5209200;28;20077;-66
2022/06/16 03:10:12;;;;;;;10.52;6.45;;;;;;;13.93;76.71;101801.63;5209452;28;20094;-66
2022/06/16 03:12:43;;;;;;;10.35;6.30;;;;;;;13.85;77.09;101794.16;5211459;28;20080;-66
2022/06/16 03:15:15;;;;;;;11.93;6.30;;;;;;;13.75;78.06;101801.19;5212911;28;20030;-66
2022/06/16 03:17:46;;;;;;;9.80;6.35;;;;;;;13.83;82.78;101796.09;5212468;28;20436;-66
2022/06/16 03:20:17;;;;;;;8.65;6.50;;;;;;;13.64;79.50;101793.06;5207125;28;20508;-66
2022/06/16 03:22:48;;;;;;;9.40;6.57;;;;;;;13.69;81.30;101801.63;5209341;28;20397;-66
2022/06/16 03:25:20;;;;;;;9.30;6.40;;;;;;;13.74;81.54;101804.81;5214983;28;20033;-65
2022/06/16 03:27:51;;;;;;;10.73;6.50;;;;;;;13.62;82.29;101801.22;5210166;28;20037;-66
2022/06/16 03:30:25;;;;;;;8.35;6.25;;;;;;;13.70;81.79;101792.63;5208805;28;20024;-66
2022/06/16 03:32:56;;;;;;;10.43;6.47;;;;;;;13.78;84.25;101794.72;5209318;28;20026;-66
2022/06/16 03:35:28;;;;;;;8.95;6.03;;;;;;;13.78;81.85;101792.03;5210497;28;20056;-66
2022/06/16 03:38:01;;;;;;;8.95;6.63;;;;;;;13.71;83.95;101794.31;5207762;28;20484;-66
2022/06/16 03:40:32;;;;;;;9.18;6.43;;;;;;;13.58;79.30;101801.59;5210089;28;20084;-66
2022/06/16 03:43:06;;;;;;;10.70;6.45;;;;;;;13.53;78.77;101816.16;5208937;28;20030;-66
2022/06/16 03:45:38;;;;;;;9.75;6.57;;;;;;;13.46;79.62;101816.72;5213548;28;20025;-66
2022/06/16 03:48:09;;;;;;;11.77;7.03;;;;;;;13.44;79.22;101824.91;5209863;28;20105;-66
2022/06/16 03:50:41;;;;;;;8.55;7.10;;;;;;;13.42;79.41;101831.31;5211287;28;20026;-66
2022/06/16 03:53:13;;;;;;;10.52;6.60;;;;;;;13.45;79.88;101829.28;5215330;28;20035;-66
2022/06/16 03:55:44;;;;;;;11.02;6.32;;;;;;;13.38;79.45;101825.31;5212308;28;20506;-66
2022/06/16 03:58:16;;;;;;;11.80;6.68;;;;;;;13.39;80.41;101831.56;5210581;28;20030;-66
2022/06/16 04:00:48;;;;;;;9.65;6.40;;;;;;;13.42;80.65;101837.53;5207833;28;20522;-66
2022/06/16 04:06:11;;;;;;;12.10;6.60;;;;;;;13.38;80.08;101844.09;5214700;28;20340;-66
2022/06/16 04:08:43;;;;;;;13.17;6.93;;;;;;;13.39;80.17;101845.81;5214757;28;20392;-66
2022/06/16 04:11:30;;;;;;;9.63;6.35;;;;;;;13.34;79.01;101842.59;5214729;28;20296;-66
2022/06/16 04:14:08;;;;;;;12.10;6.45;;;;;;;13.36;79.25;101854.06;5216961;28;20384;-66
2022/06/16 04:16:52;;;;;;;10.43;6.22;;;;;;;13.34;79.26;101856.00;5211375;28;20113;-66
2022/06/16 04:19:23;;;;;;;12.13;6.57;;;;;;;13.43;80.67;101852.66;5211455;28;20042;-65
2022/06/16 04:21:54;;;;;;;10.85;6.72;;;;;;;13.32;79.29;101849.91;5213205;28;20060;-66
2022/06/16 04:24:26;;;;;;;7.78;6.20;;;;;;;13.35;79.69;101849.69;5212713;28;20034;-66
2022/06/16 04:26:57;;;;;;;9.48;6.43;;;;;;;13.42;80.74;101858.97;5212466;28;20095;-66
2022/06/16 04:29:29;;;;;;;8.63;6.43;;;;;;;13.46;84.12;101860.50;5214958;28;20538;-66
2022/06/16 04:32:00;;;;;;;12.43;6.53;;;;;;;13.51;82.02;101866.34;5214233;28;20467;-66
2022/06/16 04:34:31;;;;;;;9.70;6.57;;;;;;;13.49;82.71;101867.44;5208302;28;20361;-65
2022/06/16 04:37:03;;;;;;;12.15;6.70;;;;;;;13.42;79.84;101858.97;5209147;28;21381;-66
2022/06/16 04:39:34;;;;;;;10.95;7.10;;;;;;;13.41;79.10;101868.00;5206976;28;20037;-66
2022/06/16 04:42:06;;;;;;;8.18;6.38;;;;;;;13.53;78.68;101877.81;5212956;28;20084;-66
2022/06/16 04:44:39;;;;;;;7.80;6.65;;;;;;;13.49;78.27;101879.03;5211522;28;20028;-65
2022/06/16 04:47:10;;;;;;;10.32;7.47;;;;;;;13.49;79.12;101881.69;5209003;28;20060;-65
2022/06/16 04:49:43;;;;;;;10.30;7.63;;;;;;;13.51;78.46;101890.50;5206714;28;20116;-66
2022/06/16 04:52:18;;;;;;;10.57;7.07;;;;;;;13.50;79.05;101887.91;5208366;28;20112;-66
2022/06/16 04:54:50;;;;;;;10.38;7.65;;;;;;;13.44;79.56;101883.88;5211504;28;20072;-66
2022/06/16 04:57:22;;;;;;;10.70;7.22;;;;;;;13.55;79.74;101891.13;5206063;28;20033;-66
2022/06/16 04:59:53;;;;;;;9.60;7.32;;;;;;;13.61;79.75;101890.69;5204961;28;20033;-66
2022/06/16 05:02:24;;;;;;;10.20;6.55;;;;;;;13.65;79.80;101891.31;5209619;28;20381;-66
2022/06/16 05:04:56;;;;;;;12.63;7.75;;;;;;;13.63;78.78;101894.09;5207003;28;20026;-66
2022/06/16 05:07:28;;;;;;;9.88;7.50;;;;;;;13.66;78.82;101904.63;5207003;28;20400;-65
2022/06/16 05:09:59;;;;;;;10.88;7.70;;;;;;;13.67;77.33;101900.09;5207186;28;20046;-66
2022/06/16 05:12:31;;;;;;;10.15;8.13;;;;;;;13.67;76.72;101905.47;5208278;28;20028;-66
2022/06/16 05:15:03;;;;;;;13.30;8.60;;;;;;;13.69;77.66;101912.44;5207908;28;20500;-65
2022/06/16 05:17:34;;;;;;;10.45;7.43;;;;;;;13.77;77.59;101911.91;5204335;28;20540;-66
2022/06/16 05:20:06;;;;;;;11.07;6.75;;;;;;;13.84;75.43;101913.13;5201894;28;20446;-66
2022/06/16 05:22:38;;;;;;;8.50;6.65;;;;;;;13.90;74.72;101919.88;5206210;28;20030;-65
2022/06/16 05:25:09;;;;;;;13.55;7.00;;;;;;;13.96;74.58;101919.47;5212333;28;20025;-65
2022/06/16 05:27:41;;;;;;;10.57;7.25;;;;;;;14.01;74.15;101928.00;5206577;28;20037;-65
2022/06/16 05:30:14;;;;;;;9.15;6.88;;;;;;;14.06;73.54;101928.53;5215083;28;20029;-66
2022/06/16 05:32:45;;;;;;;8.55;6.60;;;;;;;14.12;74.46;101937.94;5206867;28;20377;-66
2022/06/16 05:35:16;;;;;;;10.18;6.78;;;;;;;14.11;72.85;101936.22;5212189;28;20033;-65
2022/06/16 05:37:48;;;;;;;9.75;6.90;;;;;;;14.12;73.46;101936.13;5206290;28;20065;-65
2022/06/16 05:40:19;;;;;;;9.30;6.93;;;;;;;14.14;73.87;101940.53;5204287;28;20061;-65
2022/06/16 05:42:50;;;;;;;10.30;6.78;;;;;;;14.20;71.84;101943.59;5212049;28;20496;-65
2022/06/16 05:45:22;;;;;;;10.43;6.13;;;;;;;14.22;70.99;101947.03;5213964;28;20025;-65
2022/06/16 05:47:53;;;;;;;9.52;6.30;;;;;;;14.27;70.00;101954.75;5211539;28;20044;-65
2022/06/16 05:50:25;;;;;;;8.07;5.85;;;;;;;14.29;70.87;101960.88;5201765;28;20109;-65
2022/06/16 05:52:57;;;;;;;8.55;5.90;;;;;;;14.24;72.93;101958.50;5200504;28;20033;-65
2022/06/16 05:55:29;;;;;;;10.27;5.85;;;;;;;14.34;71.07;101949.78;5205190;28;20480;-65
2022/06/16 05:58:01;;;;;;;10.07;5.95;;;;;;;14.34;73.27;101950.63;5204228;28;20026;-65
2022/06/16 06:00:33;;;;;;;11.98;6.15;;;;;;;14.37;70.73;101955.75;5207268;28;20029;-65
2022/06/16 06:03:05;;;;;;;7.95;5.90;;;;;;;14.41;70.77;101957.25;5204021;28;20026;-65
2022/06/16 06:05:36;;;;;;;9.32;5.40;;;;;;;14.49;68.47;101964.72;5201006;28;20144;-65
2022/06/16 06:17:00;;;;;;;6.45;4.93;;;;;;;14.80;67.76;101973.19;5210788;28;20667;-65
2022/06/16 06:19:31;;;;;;;8.50;4.40;;;;;;;14.87;66.49;101967.22;5202350;28;20042;-66
2022/06/16 06:22:11;;;;;;;7.78;4.03;;;;;;;14.95;69.82;101971.16;5211047;28;20262;-66
2022/06/16 06:25:01;;;;;;;6.75;4.28;;;;;;;15.05;67.36;101969.44;5205825;28;20065;-66
2022/06/16 06:27:34;;;;;;;7.72;4.50;;;;;;;15.16;65.25;101968.63;5203062;28;20042;-66
2022/06/16 06:30:19;;;;;;;7.07;3.88;;;;;;;15.21;66.70;101979.88;5198790;28;20025;-66
2022/06/16 06:32:50;;;;;;;16.70;5.28;;;;;;;15.22;67.00;101982.44;5210517;28;20073;-65
2022/06/16 06:35:21;;;;;;;8.73;4.22;;;;;;;15.36;64.41;101981.38;5210343;28;20341;-66
2022/06/16 06:37:53;;;;;;;7.40;3.85;;;;;;;15.49;62.39;101978.56;5206143;28;20087;-66
2022/06/16 06:40:34;;;;;;;9.48;4.20;;;;;;;15.55;63.26;101987.97;5209133;28;20116;-66
2022/06/16 06:43:06;;;;;;;6.82;4.45;;;;;;;15.66;60.88;101979.91;5207522;28;20438;-66
2022/06/16 06:45:37;;;;;;;6.90;3.70;;;;;;;15.86;60.92;101984.59;5202869;28;20109;-66
2022/06/16 06:48:08;;;;;;;7.82;3.65;;;;;;;15.91;60.14;101975.28;5206250;28;20369;-65
2022/06/16 06:50:40;;;;;;;7.90;3.63;;;;;;;16.03;59.31;101982.34;5207254;28;20132;-66
2022/06/16 06:53:12;;;;;;;6.47;3.50;;;;;;;16.17;57.70;101989.31;5207887;28;20037;-66
2022/06/16 06:55:46;;;;;;;8.95;3.45;;;;;;;16.25;59.63;101986.81;5210899;28;20087;-65
2022/06/16 06:58:18;;;;;;;;;;;;;;;16.28;62.22;101991.97;5213197;28;20130;-66
2022/06/16 07:00:51;;;;;;;7.07;3.20;;;;;;;16.54;55.71;101997.88;5216932;28;20398;-65
2022/06/16 07:03:22;;;;;;;6.20;2.85;;;;;;;16.63;54.25;101999.81;5216218;28;20032;-65
2022/06/16 07:05:54;;;;;;;6.15;2.97;;;;;;;16.79;55.13;102009.28;5214400;28;20061;-65
2022/06/16 07:08:25;;;;;;;6.97;2.80;;;;;;;16.81;55.51;102002.78;5216278;28;20426;-66
2022/06/16 07:10:57;;;;;;;6.63;2.80;;;;;;;16.88;56.67;102003.16;5213241;28;20099;-66
2022/06/16 07:13:29;;;;;;;7.63;2.30;;;;;;;17.04;56.82;102005.38;5216131;28;20065;-66
2022/06/16 07:16:00;;;;;;;5.20;2.40;;;;;;;17.08;56.39;102019.47;5213744;28;20029;-66
2022/06/16 07:18:31;;;;;;;6.53;2.60;;;;;;;17.09;56.79;102024.75;5214934;28;20760;-66
2022/06/16 07:21:04;;;;;;;5.15;2.10;;;;;;;17.16;54.37;102031.31;5213590;28;20434;-66
2022/06/16 07:23:35;;;;;;;5.53;2.30;;;;;;;17.30;54.99;102038.22;5217212;28;20089;-65
2022/06/16 07:26:06;;;;;;;5.35;2.13;;;;;;;17.31;55.88;102039.91;5215740;28;20423;-66
2022/06/16 07:28:38;;;;;;;5.28;2.10;;;;;;;17.31;55.78;102031.81;5212856;28;20050;-66
2022/06/16 07:31:10;;;;;;;5.68;2.28;;;;;;;17.35;57.41;102041.34;5211672;28;20048;-66
2022/06/16 07:33:41;;;;;;;8.27;2.55;;;;;;;17.50;54.27;102038.34;5215139;28;20133;-66
2022/06/16 07:36:13;;;;;;;5.60;2.28;;;;;;;17.60;54.95;102042.81;5215346;28;20036;-66
2022/06/16 07:38:46;;;;;;;7.50;2.90;;;;;;;17.70;55.65;102056.34;5215793;28;20033;-66
2022/06/16 07:41:34;;;;;;;6.03;2.67;;;;;;;17.90;55.01;102056.47;5211813;28;20033;-66
2022/06/16 07:44:11;;;;;;;6.80;2.88;;;;;;;17.92;56.35;102063.44;5216667;28;20435;-66
2022/06/16 07:46:46;;;;;;;5.93;3.38;;;;;;;18.00;55.68;102065.44;5211572;28;20032;-66
2022/06/16 07:49:25;;;;;;;6.20;3.15;;;;;;;18.22;54.12;102065.25;5207225;28;20073;-66
2022/06/16 07:51:57;;;;;;;6.55;3.20;;;;;;;18.23;53.28;102066.94;5213733;28;20037;-66
2022/06/16 07:54:29;;;;;;;5.18;3.20;;;;;;;18.22;53.11;102062.56;5212446;28;20274;-66
2022/06/16 07:57:01;;;;;;;7.45;3.00;;;;;;;18.46;54.13;102069.44;5212816;28;20034;-65
2022/06/16 07:59:32;;;;;;;6.38;2.83;;;;;;;18.45;52.95;102069.56;5211317;28;20030;-66
2022/06/16 08:02:04;;;;;;;5.18;2.78;;;;;;;18.46;54.93;102076.69;5210130;28;20026;-66
2022/06/16 08:04:35;;;;;;;7.55;3.10;;;;;;;18.70;51.62;102073.63;5209967;28;20033;-66
2022/06/16 08:07:06;;;;;;;5.78;2.55;;;;;;;18.83;51.19;102084.16;5209070;28;20167;-66
2022/06/16 08:09:38;;;;;;;6.15;3.00;;;;;;;18.73;49.23;102086.81;5211914;28;20038;-66
2022/06/16 08:12:11;;;;;;;6.47;2.70;;;;;;;18.83;50.66;102087.75;5213379;28;20034;-66
2022/06/16 08:14:45;;;;;;;5.25;2.33;;;;;;;18.89;50.10;102089.88;5213324;28;20536;-66
2022/06/16 08:17:30;;;;;;;6.13;3.10;;;;;;;18.83;48.41;102087.75;5209790;28;20053;-65
2022/06/16 08:20:03;;;;;;;4.18;2.58;;;;;;;18.95;50.85;102089.31;5213278;28;20064;-66
2022/06/16 08:22:37;;;;;;;5.18;2.88;;;;;;;19.03;51.33;102087.75;5213436;28;20057;-66
2022/06/16 08:25:12;;;;;;;5.35;2.70;;;;;;;19.06;52.29;102080.19;5214818;28;20048;-65
2022/06/16 08:27:47;;;;;;;6.93;3.17;;;;;;;19.10;50.47;102083.44;5210436;28;20430;-66
2022/06/16 08:30:19;;;;;;;5.35;2.85;;;;;;;19.43;50.23;102078.59;5214484;28;20030;-66
2022/06/16 08:32:53;;;;;;;6.88;3.40;;;;;;;19.49;48.89;102078.00;5212721;28;20522;-66
2022/06/16 08:35:25;;;;;;;8.25;3.10;;;;;;;19.49;48.84;102078.00;5212432;28;20034;-65
2022/06/16 08:37:58;;;;;;;9.75;2.92;;;;;;;19.49;48.40;102065.31;5207071;28;20029;-66
2022/06/16 08:40:34;;;;;;;7.47;2.90;;;;;;;19.61;47.74;102071.41;5213566;28;20025;-66
2022/06/16 08:43:14;;;;;;;8.18;2.90;;;;;;;19.62;48.10;102075.84;5213173;28;20281;-66
2022/06/16 08:45:53;;;;;;;4.68;2.50;;;;;;;19.76;47.70;102079.97;5211752;28;20029;-66
2022/06/16 08:48:40;;;;;;;5.20;3.00;;;;;;;19.61;47.81;102081.41;5211381;28;20036;-66
2022/06/16 08:51:39;;;;;;;7.50;2.85;;;;;;;19.72;50.37;102078.56;5209906;28;21279;-65
2022/06/16 08:54:26;;;;;;;4.70;2.75;;;;;;;19.85;47.35;102092.63;5210339;28;20033;-66
2022/06/16 08:57:12;;;;;;;5.45;2.58;;;;;;;19.88;47.78;102091.47;5211062;28;20034;-66
2022/06/16 08:59:51;;;;;;;5.68;2.80;;;;;;;19.98;48.15;102108.53;5200522;28;20033;-66
2022/06/16 09:02:40;;;;;;;4.35;2.67;;;;;;;19.96;47.14;102114.13;5209327;28;20029;-66
2022/06/16 09:05:40;;;;;;;5.65;2.67;;;;;;;20.12;49.02;102107.22;5210802;28;20083;-66
2022/06/16 09:08:14;;;;;;;6.20;2.63;;;;;;;20.16;45.99;102114.88;5207260;28;20576;-66
2022/06/16 09:11:10;;;;;;;6.00;2.72;;;;;;;20.09;47.46;102119.16;5209490;28;20026;-66
2022/06/16 09:13:48;;;;;;;6.45;2.80;;;;;;;20.26;46.65;102120.25;5206012;28;20034;-66
2022/06/16 09:16:33;;;;;;;6.95;3.10;;;;;;;20.06;46.41;102116.78;5211645;28;20096;-66
2022/06/16 09:19:35;;;;;;;12.52;6.32;;;;;;;20.35;48.04;102118.50;5205435;28;20937;-66
2022/06/16 09:22:20;;;;;;;4.82;3.15;;;;;;;20.18;47.26;102118.28;5213329;28;20022;-66
2022/06/16 09:25:16;;;;;;;6.32;2.83;;;;;;;20.35;48.39;102116.63;5211120;28;20460;-66
2022/06/16 09:28:25;;;;;;;9.27;3.10;;;;;;;20.53;46.34;102121.25;5208129;28;20575;-66
2022/06/16 09:31:00;;;;;;;5.03;2.90;;;;;;;20.66;47.33;102126.34;5207208;28;20042;-65
2022/06/16 09:33:35;;;;;;;7.55;3.10;;;;;;;20.63;45.42;102134.78;5209132;28;20168;-66
2022/06/16 09:36:14;;;;;;;6.75;2.60;;;;;;;20.51;46.12;102125.97;5210005;28;20072;-66
2022/06/16 09:38:57;;;;;;;5.80;3.15;;;;;;;20.70;46.88;102123.16;5211438;28;20103;-66
2022/06/16 09:44:47;;;;;;;5.45;2.90;;;;;;;20.96;47.01;102117.00;5209613;28;20033;-66
2022/06/16 09:47:25;;;;;;;7.03;3.03;;;;;;;21.12;45.54;102129.88;5206853;28;20032;-66
2022/06/16 09:50:34;;;;;;;7.65;4.35;;;;;;;21.18;46.18;102136.53;5205874;28;20480;-66
2022/06/16 09:53:16;;;;;;;6.53;3.50;;;;;;;21.00;46.94;102122.94;5207860;28;20033;-66
2022/06/16 09:55:54;;;;;;;6.82;4.00;;;;;;;21.16;45.57;102123.13;5202320;28;20033;-66
2022/06/16 09:58:52;;;;;;;6.75;3.55;;;;;;;21.10;44.88;102119.16;5206049;28;20033;-66
2022/06/16 10:01:27;;;;;;;7.70;3.13;;;;;;;21.24;47.30;102130.47;5198860;28;20378;-66
2022/06/16 10:04:02;;;;;;;7.75;3.35;;;;;;;21.00;47.84;102126.53;5206267;28;20464;-66
2022/06/16 10:06:40;;;;;;;6.03;2.70;;;;;;;21.30;48.45;102129.84;5209278;28;20041;-66
2022/06/16 10:09:18;;;;;;;5.32;3.55;;;;;;;21.37;46.38;102124.66;5208195;28;20022;-66
2022/06/16 10:12:01;;;;;;;8.25;4.43;;;;;;;21.47;45.83;102120.84;5214322;28;20034;-66
2022/06/16 10:14:41;;;;;;;7.18;3.90;;;;;;;21.57;46.85;102114.47;5210739;28;21324;-65
2022/06/16 10:17:17;;;;;;;7.38;3.92;;;;;;;21.66;45.78;102121.69;5201419;28;20025;-66
2022/06/16 10:19:50;;;;;;;6.43;3.38;;;;;;;21.62;46.03;102123.00;5205030;28;20050;-64
2022/06/16 10:22:24;;;;;;;5.85;3.53;;;;;;;21.64;45.02;102124.53;5203699;28;20033;-65
2022/06/16 10:25:05;;;;;;;7.85;3.53;;;;;;;21.65;46.50;102119.97;5211300;28;20036;-64
2022/06/16 10:28:04;;;;;;;8.85;3.80;;;;;;;21.76;45.59;102127.84;5208006;28;20038;-65
2022/06/16 10:30:38;;;;;;;7.03;3.10;;;;;;;21.80;47.65;102128.38;5208524;28;20044;-66
2022/06/16 10:33:17;;;;;;;6.10;2.67;;;;;;;21.88;50.09;102140.16;5213658;28;20037;-65
2022/06/16 10:35:51;;;;;;;8.38;3.20;;;;;;;21.76;46.16;102140.59;5214390;28;20041;-66
2022/06/16 10:38:40;;;;;;;7.43;3.67;;;;;;;21.78;47.08;102141.28;5217374;28;20029;-65
2022/06/16 10:41:29;;;;;;;5.93;3.35;;;;;;;21.89;45.89;102136.41;5210031;28;20122;-65
2022/06/16 10:44:09;;;;;;;7.68;3.30;;;;;;;21.92;46.37;102135.28;5213823;28;20447;-65
2022/06/16 10:46:55;;;;;;;6.82;3.05;;;;;;;21.94;45.02;102138.69;5217190;28;20507;-65
2022/06/16 10:49:39;;;;;;;6.40;3.40;;;;;;;21.80;47.81;102131.94;5214119;28;20095;-65
2022/06/16 10:52:14;;;;;;;;;;;;;;;22.00;47.00;102135.31;5216937;28;20375;-65
2022/06/16 10:54:56;;;;;;;;;;;;;;;22.08;48.03;102132.63;5210256;28;20191;-65
2022/06/16 10:57:33;;;;;;;5.82;3.58;;;;;;;22.23;46.08;102132.03;5213309;28;20002;-65
2022/06/16 11:00:12;;;;;;;5.50;3.60;;;;;;;22.33;45.61;102134.66;5207858;28;20132;-66
2022/06/16 11:02:57;;;;;;;5.25;3.05;;;;;;;22.34;47.28;102120.03;5210055;28;20049;-65
2022/06/16 11:05:36;;;;;;;6.68;3.20;;;;;;;22.40;45.77;102112.09;5211581;28;20029;-65
2022/06/16 11:08:11;;;;;;;7.22;3.53;;;;;;;22.57;44.81;102123.00;5209209;28;20112;-64
2022/06/16 11:10:52;;;;;;;10.32;3.50;;;;;;;22.69;44.89;102121.69;5205586;28;20396;-65
2022/06/16 11:13:32;;;;;;;8.48;3.55;;;;;;;22.76;45.44;102121.84;5203878;28;20022;-65
2022/06/16 11:16:10;;;;;;;6.45;2.97;;;;;;;22.76;44.25;102116.41;5210790;28;20392;-65
2022/06/16 11:18:44;;;;;;;5.28;2.50;;;;;;;23.00;44.01;102112.91;5209307;28;20046;-65
2022/06/16 11:21:21;;;;;;;7.47;4.22;;;;;;;22.71;44.09;102111.50;5212632;28;20030;-65
2022/06/16 11:23:55;;;;;;;4.95;2.88;;;;;;;22.96;43.74;102125.13;5209494;28;20376;-65
2022/06/16 11:26:33;;;;;;;5.13;2.83;;;;;;;23.01;44.35;102120.91;5213681;28;20080;-65
2022/06/16 11:29:11;;;;;;;7.00;3.20;;;;;;;23.03;43.96;102108.00;5212331;28;20037;-65
2022/06/16 11:31:48;;;;;;;6.65;2.90;;;;;;;22.96;43.97;102111.53;5212745;28;20490;-65
2022/06/16 11:34:23;;;;;;;7.47;3.20;;;;;;;22.96;42.99;102114.25;5206570;28;20121;-65
2022/06/16 11:37:09;;;;;;;7.60;3.20;;;;;;;23.27;43.88;102109.88;5214078;28;20482;-65
2022/06/16 11:40:07;;;;;;;6.55;3.10;;;;;;;23.18;42.73;102104.59;5210034;28;20099;-65
2022/06/16 11:42:44;;;;;;;7.22;2.95;;;;;;;23.08;44.50;102099.31;5210311;28;20036;-65
2022/06/16 11:45:44;;;;;;;7.25;3.00;;;;;;;23.22;45.04;102101.38;5214335;28;20029;-65
2022/06/16 11:48:33;;;;;;;6.65;2.63;;;;;;;23.33;44.17;102111.06;5208360;28;20562;-65
2022/06/16 11:51:12;;;;;;;8.02;3.10;;;;;;;23.12;44.09;102103.41;5209889;28;20396;-65
2022/06/16 11:53:49;;;;;;;6.22;3.13;;;;;;;23.36;45.37;102108.00;5211302;28;20556;-65
2022/06/16 11:57:02;;;;;;;6.65;3.15;;;;;;;23.40;43.71;102103.91;5210265;28;20034;-65
2022/06/16 11:59:36;;;;;;;5.68;2.70;;;;;;;23.52;42.99;102117.19;5213043;28;20042;-65
2022/06/16 12:02:49;;;;;;;6.57;2.80;;;;;;;23.57;44.65;102117.50;5211662;28;20484;-65
2022/06/16 12:05:38;;;;;;;5.78;2.80;;;;;;;23.58;43.45;102120.06;5187582;28;20107;-65
2022/06/16 12:08:15;;;;;;;7.65;2.60;;;;;;;23.70;43.58;102120.53;5209400;28;20752;-65
2022/06/16 12:10:50;;;;;;;6.68;2.80;;;;;;;23.72;41.86;102121.25;5212612;28;20030;-65
2022/06/16 12:13:43;;;;;;;6.50;2.65;;;;;;;23.79;42.71;102115.97;5214469;28;20058;-65
2022/06/16 12:16:25;;;;;;;5.32;2.55;;;;;;;23.69;41.94;102113.41;5209589;28;20034;-65
2022/06/16 12:19:08;;;;;;;5.97;2.83;;;;;;;23.79;43.65;102113.25;5211552;28;20050;-65
2022/06/16 12:22:04;;;;;;;17.48;4.35;;;;;;;23.95;42.62;102131.41;5208188;28;20038;-65
2022/06/16 12:24:38;;;;;;;11.80;3.33;;;;;;;23.83;41.94;102126.34;5207507;28;20068;-65
2022/06/16 12:27:15;;;;;;;6.38;2.97;;;;;;;23.52;40.21;102128.06;5207447;28;20034;-65
2022/06/16 12:30:08;;;;;;;7.88;3.25;;;;;;;23.82;41.15;102140.16;5212702;28;20034;-64
2022/06/16 12:33:08;;;;;;;6.18;2.90;;;;;;;23.90;41.21;102158.38;5209206;28;20037;-65
2022/06/16 12:35:53;;;;;;;5.28;2.83;;;;;;;23.83;41.02;102169.09;5206888;28;20040;-65